createdAt,value
2019-02-08T00:03:23.570Z,81.97
2019-02-08T00:08:26.012Z,82.28
2019-02-08T00:13:28.459Z,82.21
2019-02-08T00:18:30.926Z,82.49
2019-02-08T00:23:33.445Z,82.24
2019-02-08T00:28:35.877Z,82.34
2019-02-08T00:33:38.321Z,82.27
2019-02-08T00:38:40.765Z,82.41
2019-02-08T00:43:43.200Z,82.30
2019-02-08T00:48:45.639Z,82.41
2019-02-08T00:53:48.092Z,81.95
2019-02-08T00:58:50.526Z,81.93
2019-02-08T01:03:52.968Z,82.04
2019-02-08T01:08:57.147Z,81.70
2019-02-08T01:13:57.877Z,81.63
2019-02-08T01:19:00.330Z,81.55
2019-02-08T01:24:02.773Z,82.16
2019-02-08T01:29:05.235Z,82.14
2019-02-08T01:34:07.690Z,82.12
2019-02-08T01:39:10.140Z,82.75
2019-02-08T01:44:12.591Z,82.41
2019-02-08T01:49:15.041Z,81.97
2019-02-08T01:54:17.494Z,81.81
2019-02-08T01:59:19.937Z,81.68
2019-02-08T02:04:23.044Z,81.71
2019-02-08T02:09:25.504Z,82.02
2019-02-08T02:14:27.943Z,82.14
2019-02-08T02:19:30.382Z,81.79
2019-02-08T02:24:33.093Z,81.88
2019-02-08T02:29:35.529Z,81.58
2019-02-08T02:34:38.007Z,81.68
2019-02-08T02:39:40.450Z,81.51
2019-02-08T02:44:43.026Z,81.54
2019-02-08T02:49:45.468Z,81.54
2019-02-08T02:54:47.920Z,81.71
2019-02-08T02:59:50.365Z,81.48
2019-02-08T03:04:52.803Z,81.32
2019-02-08T03:09:55.253Z,81.23
2019-02-08T03:14:57.695Z,81.11
2019-02-08T03:20:00.271Z,81.11
2019-02-08T03:25:02.584Z,81.37
2019-02-08T03:30:08.021Z,81.14
2019-02-08T03:35:10.510Z,81.36
2019-02-08T03:40:12.903Z,81.39
2019-02-08T03:45:15.410Z,81.25
2019-02-08T03:50:23.722Z,81.36
2019-02-08T03:55:26.179Z,81.60
2019-02-08T04:00:31.607Z,81.63
2019-02-08T04:05:34.049Z,81.40
2019-02-08T04:10:36.489Z,81.16
2019-02-08T04:15:38.928Z,81.38
2019-02-08T04:20:41.382Z,81.74
2019-02-08T04:25:43.847Z,81.52
2019-02-08T04:30:46.305Z,81.46
2019-02-08T04:35:48.755Z,81.11
2019-02-08T04:40:51.198Z,80.73
2019-02-08T04:45:53.639Z,80.51
2019-02-08T04:50:56.080Z,80.44
2019-02-08T04:55:58.513Z,80.33
2019-02-08T05:01:00.951Z,80.21
2019-02-08T05:06:03.385Z,80.37
2019-02-08T05:11:05.834Z,80.23
2019-02-08T05:16:08.288Z,80.28
2019-02-08T05:21:10.752Z,80.04
2019-02-08T05:26:13.199Z,80.27
2019-02-08T05:31:15.628Z,80.29
2019-02-08T05:36:18.124Z,79.91
2019-02-08T05:41:20.522Z,80.00
2019-02-08T05:46:22.964Z,80.04
2019-02-08T05:51:25.413Z,80.12
2019-02-08T05:56:27.853Z,79.79
2019-02-08T06:01:30.294Z,79.82
2019-02-08T06:06:32.729Z,79.82
2019-02-08T06:11:35.192Z,79.79
2019-02-08T06:16:37.681Z,79.97
2019-02-08T06:21:40.116Z,79.73
2019-02-08T06:26:42.560Z,79.80
2019-02-08T06:31:45.024Z,80.13
2019-02-08T06:36:47.479Z,80.08
2019-02-08T06:41:49.918Z,80.47
2019-02-08T06:46:52.359Z,80.32
2019-02-08T06:51:54.814Z,80.32
2019-02-08T06:56:57.252Z,79.93
2019-02-08T07:02:02.643Z,79.52
2019-02-08T07:07:05.079Z,79.83
2019-02-08T07:12:13.182Z,79.35
2019-02-08T07:17:15.648Z,79.25
2019-02-08T07:22:20.653Z,79.11
2019-02-08T07:27:32.125Z,78.75
2019-02-08T07:32:40.432Z,77.53
2019-02-08T07:37:42.868Z,76.63
2019-02-08T07:42:45.321Z,75.99
2019-02-08T07:47:50.741Z,75.17
2019-02-08T07:53:02.383Z,74.56
2019-02-08T07:58:23.176Z,74.03
2019-02-08T08:03:34.522Z,73.63
2019-02-08T08:08:45.780Z,72.91
2019-02-08T08:13:48.239Z,72.09
2019-02-08T08:18:50.674Z,71.57
2019-02-08T08:23:53.142Z,70.46
2019-02-08T08:29:14.002Z,69.75
2019-02-08T08:34:28.455Z,70.40
2019-02-08T08:39:45.878Z,70.31
2019-02-08T08:44:57.413Z,69.30
2019-02-08T08:50:30.752Z,69.02
2019-02-08T08:55:42.546Z,68.52
2019-02-08T09:01:05.450Z,68.14
2019-02-08T09:06:16.563Z,67.81
2019-02-08T09:11:46.313Z,67.43
2019-02-08T09:16:51.845Z,66.87
2019-02-08T09:22:09.352Z,66.37
2019-02-08T09:27:20.813Z,64.38
2019-02-08T09:32:47.462Z,64.70
2019-02-08T09:37:52.579Z,64.36
2019-02-08T09:43:22.457Z,64.10
2019-02-08T09:48:45.954Z,64.04
2019-02-08T09:54:19.334Z,64.35
2019-02-08T09:59:52.150Z,64.89
2019-02-08T10:05:03.223Z,64.11
2019-02-08T10:10:14.638Z,64.00
2019-02-08T10:15:32.439Z,63.36
2019-02-08T10:20:54.169Z,61.27
2019-02-08T10:26:14.006Z,60.03
2019-02-08T10:31:44.396Z,59.19
2019-02-08T10:37:01.811Z,59.18
2019-02-08T10:42:28.313Z,59.16
2019-02-08T10:48:01.741Z,58.59
2019-02-08T10:53:25.862Z,58.47
2019-02-08T10:58:33.987Z,56.85
2019-02-08T11:03:55.308Z,56.41
2019-02-08T11:09:16.105Z,56.96
2019-02-08T11:14:37.217Z,55.43
2019-02-08T11:19:39.154Z,54.95
2019-02-08T11:24:41.610Z,54.48
2019-02-08T11:29:44.271Z,53.75
2019-02-08T11:34:46.739Z,54.90
2019-02-08T11:39:49.202Z,54.64
2019-02-08T11:44:51.688Z,54.06
2019-02-08T11:49:54.202Z,52.82
2019-02-08T11:54:56.665Z,52.74
2019-02-08T11:59:59.117Z,52.83
2019-02-08T12:05:01.574Z,52.48
2019-02-08T12:10:04.015Z,52.95
2019-02-08T12:15:06.465Z,53.63
2019-02-08T12:20:08.920Z,53.46
2019-02-08T12:25:11.382Z,52.95
2019-02-08T12:30:16.776Z,52.52
2019-02-08T12:35:19.370Z,52.67
2019-02-08T12:40:21.830Z,53.38
2019-02-08T12:45:24.299Z,51.53
2019-02-08T12:50:26.817Z,51.50
2019-02-08T12:55:29.258Z,52.70
2019-02-08T13:00:31.726Z,52.63
2019-02-08T13:05:34.185Z,53.17
2019-02-08T13:10:36.645Z,52.41
2019-02-08T13:15:39.125Z,51.68
2019-02-08T13:20:41.614Z,52.87
2019-02-08T13:25:44.477Z,52.64
2019-02-08T13:30:46.921Z,53.21
2019-02-08T13:35:49.375Z,53.91
2019-02-08T13:40:51.828Z,54.05
2019-02-08T13:45:54.305Z,54.08
2019-02-08T13:50:56.766Z,54.46
2019-02-08T13:55:59.238Z,53.99
2019-02-08T14:01:01.716Z,54.38
2019-02-08T14:06:04.182Z,54.45
2019-02-08T14:11:06.635Z,54.23
2019-02-08T14:16:09.083Z,54.31
2019-02-08T14:21:11.562Z,54.22
2019-02-08T14:26:14.028Z,54.41
2019-02-08T14:31:16.534Z,54.67
2019-02-08T14:36:19.011Z,55.41
2019-02-08T14:41:21.444Z,55.57
2019-02-08T14:46:23.910Z,56.00
2019-02-08T14:51:26.365Z,56.12
2019-02-08T14:56:28.827Z,55.75
2019-02-08T15:01:31.267Z,56.64
2019-02-08T15:06:33.781Z,57.26
2019-02-08T15:11:36.194Z,56.86
2019-02-08T15:16:38.646Z,57.34
2019-02-08T15:21:41.432Z,57.21
2019-02-08T15:26:43.901Z,57.61
2019-02-08T15:31:46.352Z,58.12
2019-02-08T15:36:49.304Z,58.22
2019-02-08T15:41:51.242Z,58.56
2019-02-08T15:46:53.698Z,58.76
2019-02-08T15:51:56.143Z,59.44
2019-02-08T15:56:58.603Z,59.80
2019-02-08T16:02:01.084Z,60.33
2019-02-08T16:07:03.540Z,60.56
2019-02-08T16:12:05.999Z,60.96
2019-02-08T16:17:08.465Z,61.59
2019-02-08T16:22:10.911Z,62.01
2019-02-08T16:27:13.360Z,62.44
2019-02-08T16:32:16.353Z,62.42
2019-02-08T16:37:18.926Z,62.86
2019-02-08T16:42:21.375Z,63.06
2019-02-08T16:47:23.819Z,63.25
2019-02-08T16:52:26.288Z,63.37
2019-02-08T16:57:28.708Z,63.44
2019-02-08T17:02:31.175Z,63.55
2019-02-08T17:07:33.615Z,63.51
2019-02-08T17:12:36.092Z,63.92
2019-02-08T17:17:38.541Z,64.05
2019-02-08T17:22:40.983Z,64.43
2019-02-08T17:27:43.441Z,64.88
2019-02-08T17:32:45.885Z,65.45
2019-02-08T17:37:48.328Z,65.89
2019-02-08T17:42:50.806Z,66.15
2019-02-08T17:47:53.293Z,66.23
2019-02-08T17:52:56.491Z,66.31
2019-02-08T17:58:03.501Z,66.74
2019-02-08T18:03:01.421Z,66.82
2019-02-08T18:08:03.884Z,67.08
2019-02-08T18:13:06.338Z,67.40
2019-02-08T18:18:11.416Z,67.36
2019-02-08T18:23:14.018Z,67.80
2019-02-08T18:28:16.710Z,68.28
2019-02-08T18:33:18.914Z,67.94
2019-02-08T18:38:21.352Z,68.09
2019-02-08T18:43:23.786Z,68.33
2019-02-08T18:48:26.252Z,68.89
2019-02-08T18:53:28.699Z,68.73
2019-02-08T18:58:31.191Z,68.83
2019-02-08T19:03:33.673Z,68.50
2019-02-08T19:08:36.192Z,68.75
2019-02-08T19:13:38.661Z,68.51
2019-02-08T19:18:41.131Z,68.53
2019-02-08T19:23:43.587Z,68.50
2019-02-08T19:28:46.078Z,68.41
2019-02-08T19:33:48.518Z,68.13
2019-02-08T19:38:50.989Z,67.83
2019-02-08T19:43:53.448Z,67.83
2019-02-08T19:48:55.974Z,67.66
2019-02-08T19:53:58.429Z,67.55
2019-02-08T19:59:00.880Z,67.35
2019-02-08T20:04:03.352Z,67.31
2019-02-08T20:09:05.808Z,67.25
2019-02-08T20:14:08.284Z,67.18
2019-02-08T20:19:10.731Z,66.99
2019-02-08T20:24:13.198Z,66.96
2019-02-08T20:29:15.636Z,66.82
2019-02-08T20:34:18.087Z,66.70
2019-02-08T20:39:20.560Z,66.66
2019-02-08T20:44:23.049Z,66.51
2019-02-08T20:49:25.506Z,66.50
2019-02-08T20:54:27.949Z,66.55
2019-02-08T20:59:30.691Z,66.56
2019-02-08T21:04:33.161Z,66.27
2019-02-08T21:09:35.673Z,65.93
2019-02-08T21:14:38.129Z,65.58
2019-02-08T21:19:40.587Z,65.33
2019-02-08T21:24:43.425Z,65.07
2019-02-08T21:29:45.635Z,64.92
2019-02-08T21:34:48.093Z,64.72
2019-02-08T21:39:50.566Z,64.59
2019-02-08T21:44:53.064Z,64.49
2019-02-08T21:49:55.699Z,64.57
2019-02-08T21:54:58.189Z,64.51
2019-02-08T22:00:00.651Z,64.53
2019-02-08T22:05:03.117Z,64.66
2019-02-08T22:10:05.575Z,64.54
2019-02-08T22:15:08.045Z,64.67
2019-02-08T22:20:16.110Z,64.62
2019-02-08T22:25:18.606Z,64.73
2019-02-08T22:30:23.970Z,64.71
2019-02-08T22:35:26.413Z,64.24
2019-02-08T22:40:28.858Z,63.79
2019-02-08T22:45:31.298Z,63.50
2019-02-08T22:50:33.738Z,63.69
2019-02-08T22:55:36.180Z,63.70
2019-02-08T23:00:41.422Z,63.73
2019-02-08T23:05:45.516Z,62.88
2019-02-08T23:10:46.290Z,62.58
2019-02-08T23:15:48.748Z,62.67
2019-02-08T23:20:51.192Z,62.78
2019-02-08T23:25:53.638Z,62.76
2019-02-08T23:30:56.110Z,62.81
2019-02-08T23:35:58.532Z,62.52
2019-02-08T23:41:00.970Z,62.41
2019-02-08T23:46:03.417Z,62.35
2019-02-08T23:51:05.852Z,62.13
2019-02-08T23:56:08.322Z,62.06
